createdAt,value
2022-08-01T00:02:01.607Z,74.04
2022-08-01T00:04:30.558Z,74.07
2022-08-01T00:07:00.600Z,74.03
2022-08-01T00:09:29.183Z,74.13
2022-08-01T00:12:00.048Z,74.14
2022-08-01T00:14:32.319Z,74.19
2022-08-01T00:17:07.015Z,74.22
2022-08-01T00:19:36.167Z,74.23
2022-08-01T00:22:04.861Z,74.07
2022-08-01T00:24:33.603Z,74.13
2022-08-01T00:27:02.131Z,74.14
2022-08-01T00:30:09.702Z,74.09
2022-08-01T00:32:19.419Z,74.10
2022-08-01T00:34:47.893Z,74.24
2022-08-01T00:37:20.625Z,74.15
2022-08-01T00:39:49.080Z,74.07
2022-08-01T00:42:17.525Z,73.98
2022-08-01T00:44:47.503Z,73.92
2022-08-01T00:47:15.957Z,74.02
2022-08-01T00:49:44.434Z,74.04
2022-08-01T00:52:13.161Z,73.98
2022-08-01T00:54:41.899Z,74.07
2022-08-01T00:57:10.963Z,74.00
2022-08-01T00:59:41.509Z,74.10
2022-08-01T01:02:15.653Z,74.12
2022-08-01T01:04:44.529Z,74.14
2022-08-01T01:07:22.451Z,74.13
2022-08-01T01:09:58.179Z,74.09
2022-08-01T01:12:37.271Z,74.00
2022-08-01T01:15:10.982Z,74.08
2022-08-01T01:17:51.282Z,73.99
2022-08-01T01:20:24.949Z,73.99
2022-08-01T01:23:21.620Z,74.05
2022-08-01T01:26:09.662Z,73.95
2022-08-01T01:29:01.246Z,74.10
2022-08-01T01:31:33.407Z,74.11
2022-08-01T01:34:05.300Z,74.18
2022-08-01T01:36:34.905Z,73.97
2022-08-01T01:39:03.639Z,74.14
2022-08-01T01:41:32.747Z,74.03
2022-08-01T01:44:02.794Z,74.02
2022-08-01T01:46:32.246Z,74.09
2022-08-01T01:49:02.449Z,73.99
2022-08-01T01:51:32.584Z,74.00
2022-08-01T01:54:02.773Z,74.10
2022-08-01T01:56:33.908Z,74.07
2022-08-01T01:59:04.999Z,74.14
2022-08-01T02:02:08.637Z,73.98
2022-08-01T02:04:27.712Z,73.99
2022-08-01T02:06:58.453Z,73.99
2022-08-01T02:09:29.279Z,73.97
2022-08-01T02:12:08.765Z,73.88
2022-08-01T02:14:38.256Z,73.97
2022-08-01T02:17:06.990Z,74.08
2022-08-01T02:19:38.272Z,73.86
2022-08-01T02:22:11.961Z,73.86
2022-08-01T02:24:46.024Z,73.89
2022-08-01T02:27:22.410Z,73.85
2022-08-01T02:29:58.820Z,73.98
2022-08-01T02:32:36.606Z,73.91
2022-08-01T02:35:12.533Z,73.89
2022-08-01T02:37:45.042Z,73.76
2022-08-01T02:40:18.093Z,73.81
2022-08-01T02:42:53.625Z,73.87
2022-08-01T02:45:25.890Z,73.62
2022-08-01T02:47:58.649Z,73.59
2022-08-01T02:50:29.521Z,73.65
2022-08-01T02:52:59.705Z,73.60
2022-08-01T02:55:30.084Z,73.57
2022-08-01T02:58:00.961Z,73.47
2022-08-01T03:00:31.173Z,73.40
2022-08-01T03:03:02.263Z,73.53
2022-08-01T03:05:32.782Z,73.75
2022-08-01T03:08:03.898Z,73.74
2022-08-01T03:10:33.668Z,73.87
2022-08-01T03:13:04.042Z,73.92
2022-08-01T03:15:36.713Z,73.96
2022-08-01T03:18:08.176Z,73.90
2022-08-01T03:20:37.001Z,73.80
2022-08-01T03:23:09.583Z,73.80
2022-08-01T03:25:40.917Z,73.73
2022-08-01T03:28:13.678Z,73.74
2022-08-01T03:30:43.529Z,73.76
2022-08-01T03:33:14.722Z,73.87
2022-08-01T03:35:49.638Z,73.98
2022-08-01T03:38:22.386Z,74.00
2022-08-01T03:40:54.759Z,74.11
2022-08-01T03:43:32.188Z,74.04
2022-08-01T03:46:08.049Z,74.10
2022-08-01T03:48:40.826Z,74.08
2022-08-01T03:51:11.424Z,74.08
2022-08-01T03:53:42.536Z,74.21
2022-08-01T03:56:13.683Z,74.21
2022-08-01T03:58:44.542Z,74.28
2022-08-01T04:01:19.402Z,74.41
2022-08-01T04:03:50.632Z,74.38
2022-08-01T04:06:20.956Z,74.48
2022-08-01T04:08:56.191Z,74.32
2022-08-01T04:11:27.668Z,74.39
2022-08-01T04:13:58.114Z,74.20
2022-08-01T04:16:27.515Z,74.10
2022-08-01T04:18:56.448Z,74.32
2022-08-01T04:21:28.988Z,74.55
2022-08-01T04:24:03.921Z,74.55
2022-08-01T04:26:35.626Z,74.42
2022-08-01T04:29:06.017Z,74.38
2022-08-01T04:31:35.967Z,74.45
2022-08-01T04:34:07.041Z,74.57
2022-08-01T04:36:37.791Z,74.62
2022-08-01T04:39:07.098Z,74.70
2022-08-01T04:41:37.500Z,74.73
2022-08-01T04:44:07.242Z,74.71
2022-08-01T04:46:38.164Z,74.69
2022-08-01T04:49:09.433Z,74.68
2022-08-01T04:51:51.500Z,74.62
2022-08-01T04:54:21.837Z,74.51
2022-08-01T04:56:51.691Z,74.71
2022-08-01T04:59:39.726Z,74.73
2022-08-01T05:02:08.838Z,74.45
2022-08-01T05:04:38.219Z,74.41
2022-08-01T05:07:06.737Z,74.40
2022-08-01T05:09:36.810Z,74.34
2022-08-01T05:12:07.638Z,74.09
2022-08-01T05:14:36.709Z,73.82
2022-08-01T05:17:06.895Z,73.80
2022-08-01T05:19:36.231Z,73.68
2022-08-01T05:22:06.204Z,73.74
2022-08-01T05:24:37.339Z,74.20
2022-08-01T05:27:09.189Z,74.84
2022-08-01T05:29:44.348Z,75.06
2022-08-01T05:32:13.460Z,75.01
2022-08-01T05:34:41.849Z,74.85
2022-08-01T05:37:10.570Z,74.25
2022-08-01T05:39:39.040Z,73.64
2022-08-01T05:42:07.969Z,73.40
2022-08-01T05:44:36.732Z,72.62
2022-08-01T05:47:05.449Z,71.72
2022-08-01T05:49:33.894Z,70.89
2022-08-01T05:52:03.081Z,70.07
2022-08-01T05:54:32.196Z,69.16
2022-08-01T05:57:02.030Z,68.01
2022-08-01T05:59:30.975Z,67.17
2022-08-01T06:01:59.543Z,66.34
2022-08-01T06:04:28.132Z,65.23
2022-08-01T06:06:56.503Z,64.51
2022-08-01T06:09:24.906Z,63.29
2022-08-01T06:11:53.343Z,62.29
2022-08-01T06:14:21.764Z,61.16
2022-08-01T06:16:50.140Z,60.67
2022-08-01T06:19:19.427Z,60.12
2022-08-01T06:21:47.891Z,59.39
2022-08-01T06:24:16.371Z,58.72
2022-08-01T06:26:44.823Z,57.88
2022-08-01T06:29:13.930Z,57.06
2022-08-01T06:31:42.630Z,55.89
2022-08-01T06:34:11.014Z,54.83
2022-08-01T06:36:39.711Z,54.30
2022-08-01T06:39:08.329Z,53.40
2022-08-01T06:41:36.967Z,52.20
2022-08-01T06:44:06.449Z,51.88
2022-08-01T06:46:35.188Z,51.20
2022-08-01T06:49:05.212Z,50.29
2022-08-01T06:51:33.936Z,49.24
2022-08-01T06:54:02.487Z,48.95
2022-08-01T06:56:31.140Z,48.55
2022-08-01T06:59:01.326Z,48.03
2022-08-01T07:01:31.043Z,47.72
2022-08-01T07:04:04.929Z,46.80
2022-08-01T07:06:34.741Z,46.46
2022-08-01T07:09:08.433Z,45.98
2022-08-01T07:11:40.799Z,45.47
2022-08-01T07:14:09.551Z,45.73
2022-08-01T07:16:38.144Z,45.72
2022-08-01T07:19:06.787Z,45.93
2022-08-01T07:21:39.754Z,45.69
2022-08-01T07:24:14.418Z,45.16
2022-08-01T07:26:52.679Z,45.28
2022-08-01T07:29:24.612Z,45.32
2022-08-01T07:31:54.316Z,45.19
2022-08-01T07:34:24.103Z,44.55
2022-08-01T07:36:53.718Z,43.98
2022-08-01T07:39:22.553Z,44.04
2022-08-01T07:42:13.370Z,44.20
2022-08-01T07:44:39.958Z,44.36
2022-08-01T07:47:08.616Z,44.00
2022-08-01T07:49:40.240Z,43.89
2022-08-01T07:52:10.526Z,44.00
2022-08-01T07:54:39.365Z,44.20
2022-08-01T07:57:08.763Z,44.43
2022-08-01T07:59:37.463Z,44.25
2022-08-01T08:02:06.738Z,43.94
2022-08-01T08:04:35.924Z,44.30
2022-08-01T08:07:04.818Z,43.92
2022-08-01T08:09:37.332Z,43.46
2022-08-01T08:12:08.461Z,43.50
2022-08-01T08:14:38.040Z,42.98
2022-08-01T08:17:07.170Z,43.10
2022-08-01T08:19:39.209Z,43.20
2022-08-01T08:22:10.277Z,42.88
2022-08-01T08:24:46.533Z,42.54
2022-08-01T08:27:16.078Z,42.55
2022-08-01T08:29:45.193Z,42.80
2022-08-01T08:32:13.911Z,42.81
2022-08-01T08:34:43.081Z,43.05
2022-08-01T08:37:12.035Z,43.14
2022-08-01T08:39:42.472Z,42.51
2022-08-01T08:42:12.161Z,42.79
2022-08-01T08:44:43.327Z,43.06
2022-08-01T08:47:19.608Z,42.76
2022-08-01T08:49:51.065Z,42.80
2022-08-01T08:52:21.709Z,43.24
2022-08-01T08:54:52.406Z,43.61
2022-08-01T08:57:22.962Z,43.76
2022-08-01T08:59:53.183Z,43.52
2022-08-01T09:02:22.403Z,43.35
2022-08-01T09:04:51.705Z,43.05
2022-08-01T09:07:20.320Z,42.70
2022-08-01T09:09:49.680Z,42.68
2022-08-01T09:12:22.508Z,42.71
2022-08-01T09:14:53.827Z,42.91
2022-08-01T09:17:22.699Z,43.08
2022-08-01T09:19:54.454Z,43.14
2022-08-01T09:22:25.634Z,42.84
2022-08-01T09:25:02.852Z,42.42
2022-08-01T09:27:31.872Z,42.45
2022-08-01T09:30:11.543Z,42.55
2022-08-01T09:32:55.757Z,42.43
2022-08-01T09:35:31.821Z,42.21
2022-08-01T09:38:20.345Z,42.50
2022-08-01T09:40:51.290Z,42.22
2022-08-01T09:43:22.359Z,42.04
2022-08-01T09:45:53.410Z,42.46
2022-08-01T09:48:28.512Z,42.40
2022-08-01T09:51:03.968Z,42.64
2022-08-01T09:53:52.522Z,42.25
2022-08-01T09:56:25.802Z,42.74
2022-08-01T09:59:00.356Z,42.65
2022-08-01T10:01:43.436Z,43.17
2022-08-01T10:04:13.697Z,43.13
2022-08-01T10:06:46.106Z,42.88
2022-08-01T10:09:15.477Z,42.52
2022-08-01T10:11:45.555Z,42.61
2022-08-01T10:14:18.198Z,42.61
2022-08-01T10:16:53.638Z,42.70
2022-08-01T10:19:28.885Z,42.58
2022-08-01T10:22:00.189Z,42.35
2022-08-01T10:24:31.190Z,41.97
2022-08-01T10:27:12.655Z,42.09
2022-08-01T10:30:05.648Z,42.06
2022-08-01T10:32:39.740Z,42.03
2022-08-01T10:35:15.716Z,42.05
2022-08-01T10:37:52.151Z,41.77
2022-08-01T10:40:31.080Z,41.72
2022-08-01T10:43:01.188Z,41.70
2022-08-01T10:45:30.352Z,41.51
2022-08-01T10:48:06.876Z,42.14
2022-08-01T10:50:38.672Z,41.98
2022-08-01T10:53:23.292Z,42.14
2022-08-01T10:56:03.932Z,42.30
2022-08-01T10:58:42.760Z,42.01
2022-08-01T11:01:21.811Z,42.33
2022-08-01T11:04:13.922Z,42.64
2022-08-01T11:07:05.973Z,42.70
2022-08-01T11:09:42.676Z,42.34
2022-08-01T11:12:23.485Z,42.03
2022-08-01T11:15:31.024Z,41.84
2022-08-01T11:18:27.404Z,42.07
2022-08-01T11:21:57.764Z,41.95
2022-08-01T11:23:53.135Z,42.28
2022-08-01T11:26:29.793Z,42.35
2022-08-01T11:29:21.581Z,42.42
2022-08-01T11:31:52.984Z,42.25
2022-08-01T11:34:54.637Z,42.19
2022-08-01T11:37:30.449Z,42.37
2022-08-01T11:40:20.181Z,41.99
2022-08-01T11:43:12.175Z,42.20
2022-08-01T11:45:53.181Z,42.31
2022-08-01T11:48:27.557Z,42.28
2022-08-01T11:51:02.203Z,42.51
2022-08-01T11:53:33.755Z,42.92
2022-08-01T11:56:02.623Z,42.43
2022-08-01T11:58:31.509Z,42.66
2022-08-01T12:01:00.531Z,42.99
2022-08-01T12:03:33.564Z,43.26
2022-08-01T12:06:02.926Z,43.02
2022-08-01T12:08:34.884Z,43.20
2022-08-01T12:11:06.707Z,42.86
2022-08-01T12:13:43.478Z,42.82
2022-08-01T12:16:12.645Z,42.85
2022-08-01T12:18:42.667Z,43.01
2022-08-01T12:21:11.867Z,42.94
2022-08-01T12:23:40.435Z,42.99
2022-08-01T12:26:28.399Z,42.99
2022-08-01T12:28:58.576Z,43.27
2022-08-01T12:31:34.493Z,43.30
2022-08-01T12:34:28.410Z,43.45
2022-08-01T12:36:59.557Z,43.46
2022-08-01T12:39:34.281Z,43.41
2022-08-01T12:42:02.436Z,43.35
2022-08-01T12:44:31.982Z,43.08
2022-08-01T12:47:01.548Z,43.62
2022-08-01T12:49:30.616Z,43.46
2022-08-01T12:51:59.552Z,43.62
2022-08-01T12:54:28.966Z,43.50
2022-08-01T12:57:00.119Z,43.74
2022-08-01T12:59:29.990Z,43.92
2022-08-01T13:02:09.493Z,43.79
2022-08-01T13:04:52.339Z,43.91
2022-08-01T13:07:21.090Z,43.48
2022-08-01T13:09:52.658Z,43.73
2022-08-01T13:12:21.371Z,43.80
2022-08-01T13:14:50.084Z,43.78
2022-08-01T13:17:32.860Z,43.83
2022-08-01T13:20:01.635Z,43.91
2022-08-01T13:22:37.185Z,44.00
2022-08-01T13:25:16.795Z,44.07
2022-08-01T13:27:53.931Z,44.24
2022-08-01T13:30:37.410Z,44.21
2022-08-01T13:33:06.081Z,44.29
2022-08-01T13:35:34.854Z,44.10
2022-08-01T13:38:03.972Z,44.54
2022-08-01T13:40:32.940Z,44.40
2022-08-01T13:43:01.419Z,44.39
2022-08-01T13:45:30.603Z,44.55
2022-08-01T13:48:03.836Z,44.93
2022-08-01T13:50:41.727Z,44.54
2022-08-01T13:53:10.359Z,45.02
2022-08-01T13:55:39.753Z,44.98
2022-08-01T13:58:08.283Z,44.80
2022-08-01T14:00:37.532Z,44.84
2022-08-01T14:03:06.583Z,44.74
2022-08-01T14:05:36.047Z,44.56
2022-08-01T14:08:06.532Z,44.48
2022-08-01T14:10:36.214Z,44.55
2022-08-01T14:13:04.826Z,44.66
2022-08-01T14:15:37.311Z,44.79
2022-08-01T14:18:11.628Z,44.88
2022-08-01T14:20:40.834Z,44.73
2022-08-01T14:23:10.369Z,45.06
2022-08-01T14:26:02.865Z,45.00
2022-08-01T14:28:30.700Z,44.78
2022-08-01T14:31:00.108Z,44.50
2022-08-01T14:33:29.444Z,44.68
2022-08-01T14:36:06.087Z,44.57
2022-08-01T14:38:46.851Z,44.79
2022-08-01T14:41:16.187Z,44.70
2022-08-01T14:43:45.666Z,44.66
2022-08-01T14:46:14.486Z,44.50
2022-08-01T14:48:43.341Z,44.48
2022-08-01T14:51:12.772Z,44.27
2022-08-01T14:53:46.566Z,44.47
2022-08-01T14:56:15.829Z,44.64
2022-08-01T14:58:44.718Z,44.70
2022-08-01T15:01:13.685Z,44.62
2022-08-01T15:03:42.584Z,44.61
2022-08-01T15:06:13.045Z,44.79
2022-08-01T15:08:41.975Z,45.08
2022-08-01T15:11:11.440Z,45.14
2022-08-01T15:13:42.600Z,44.81
2022-08-01T15:16:12.164Z,44.99
2022-08-01T15:18:42.484Z,45.02
2022-08-01T15:21:29.398Z,45.11
2022-08-01T15:24:07.186Z,45.49
2022-08-01T15:26:36.139Z,45.17
2022-08-01T15:29:05.126Z,45.42
2022-08-01T15:31:34.036Z,45.32
2022-08-01T15:34:02.922Z,45.62
2022-08-01T15:36:35.421Z,45.31
2022-08-01T15:39:04.694Z,45.36
2022-08-01T15:41:33.582Z,45.10
2022-08-01T15:44:02.626Z,44.96
2022-08-01T15:46:31.538Z,45.25
2022-08-01T15:49:04.163Z,45.32
2022-08-01T15:51:34.030Z,45.50
2022-08-01T15:54:03.350Z,45.52
2022-08-01T15:56:33.547Z,45.73
2022-08-01T15:59:05.898Z,45.61
2022-08-01T16:01:34.814Z,45.82
2022-08-01T16:04:04.225Z,45.99
2022-08-01T16:06:33.394Z,46.25
2022-08-01T16:09:02.673Z,46.19
2022-08-01T16:11:31.609Z,46.05
2022-08-01T16:14:00.758Z,46.15
2022-08-01T16:16:29.735Z,46.25
2022-08-01T16:18:58.413Z,46.28
2022-08-01T16:21:27.255Z,46.61
2022-08-01T16:23:55.833Z,46.52
2022-08-01T16:26:27.949Z,46.48
2022-08-01T16:28:58.133Z,46.67
2022-08-01T16:31:38.205Z,46.69
2022-08-01T16:34:22.947Z,46.77
2022-08-01T16:36:52.801Z,46.94
2022-08-01T16:39:23.580Z,46.97
2022-08-01T16:41:55.171Z,47.05
2022-08-01T16:44:33.379Z,47.42
2022-08-01T16:47:04.249Z,47.34
2022-08-01T16:49:33.429Z,47.25
2022-08-01T16:52:02.303Z,47.43
2022-08-01T16:54:31.605Z,47.46
2022-08-01T16:57:08.432Z,47.65
2022-08-01T16:59:40.868Z,47.61
2022-08-01T17:02:11.626Z,47.61
2022-08-01T17:04:40.249Z,47.83
2022-08-01T17:07:09.176Z,47.95
2022-08-01T17:09:43.021Z,47.98
2022-08-01T17:12:12.638Z,48.12
2022-08-01T17:14:43.050Z,48.29
2022-08-01T17:17:20.564Z,48.41
2022-08-01T17:19:49.946Z,48.47
2022-08-01T17:22:18.930Z,48.47
2022-08-01T17:24:47.470Z,48.60
2022-08-01T17:27:16.285Z,48.71
2022-08-01T17:29:45.060Z,48.82
2022-08-01T17:32:14.370Z,48.88
2022-08-01T17:34:44.871Z,48.92
2022-08-01T17:37:13.558Z,48.96
2022-08-01T17:39:42.848Z,49.06
2022-08-01T17:42:14.139Z,49.17
2022-08-01T17:44:46.072Z,49.23
2022-08-01T17:47:40.877Z,49.38
2022-08-01T17:50:10.053Z,49.47
2022-08-01T17:52:39.300Z,49.71
2022-08-01T17:55:54.410Z,49.79
2022-08-01T17:58:04.165Z,49.90
2022-08-01T18:00:33.781Z,50.05
2022-08-01T18:03:02.660Z,50.03
2022-08-01T18:05:37.801Z,50.14
2022-08-01T18:08:06.782Z,50.15
2022-08-01T18:10:35.367Z,50.24
2022-08-01T18:13:12.919Z,50.24
2022-08-01T18:15:43.198Z,50.23
2022-08-01T18:18:13.541Z,50.49
2022-08-01T18:20:42.332Z,50.72
2022-08-01T18:23:11.368Z,50.88
2022-08-01T18:25:40.973Z,50.97
2022-08-01T18:28:22.736Z,51.02
2022-08-01T18:30:59.069Z,51.36
2022-08-01T18:33:27.936Z,51.48
2022-08-01T18:36:01.898Z,51.57
2022-08-01T18:38:37.383Z,51.72
2022-08-01T18:41:13.587Z,51.84
2022-08-01T18:43:42.023Z,52.11
2022-08-01T18:46:10.417Z,52.22
2022-08-01T18:48:39.107Z,52.33
2022-08-01T18:51:08.482Z,52.41
2022-08-01T18:53:39.170Z,52.53
2022-08-01T18:56:11.689Z,52.76
2022-08-01T18:58:43.520Z,52.98
2022-08-01T19:01:13.457Z,53.19
2022-08-01T19:03:42.924Z,53.18
2022-08-01T19:06:11.875Z,53.31
2022-08-01T19:08:41.012Z,53.41
2022-08-01T19:11:09.576Z,53.63
2022-08-01T19:13:38.350Z,53.71
2022-08-01T19:16:07.103Z,53.77
2022-08-01T19:18:36.139Z,53.95
2022-08-01T19:21:06.401Z,54.09
2022-08-01T19:23:53.882Z,54.39
2022-08-01T19:26:25.741Z,54.32
2022-08-01T19:28:57.834Z,54.44
2022-08-01T19:31:34.107Z,54.38
2022-08-01T19:34:05.997Z,54.60
2022-08-01T19:36:37.758Z,54.75
2022-08-01T19:39:09.666Z,54.71
2022-08-01T19:41:40.234Z,54.70
2022-08-01T19:44:13.019Z,54.95
2022-08-01T19:46:44.466Z,55.00
2022-08-01T19:49:15.377Z,55.03
2022-08-01T19:51:49.080Z,55.20
2022-08-01T19:54:20.267Z,55.23
2022-08-01T19:56:50.840Z,55.33
2022-08-01T19:59:25.109Z,55.38
2022-08-01T20:01:54.547Z,55.38
2022-08-01T20:04:24.289Z,55.52
2022-08-01T20:06:54.351Z,55.61
2022-08-01T20:09:24.072Z,55.67
2022-08-01T20:11:55.029Z,55.43
2022-08-01T20:14:25.691Z,55.58
2022-08-01T20:17:08.187Z,55.72
2022-08-01T20:19:45.234Z,55.83
2022-08-01T20:22:14.998Z,55.92
2022-08-01T20:24:45.520Z,55.89
2022-08-01T20:27:15.513Z,55.94
2022-08-01T20:29:45.861Z,56.24
2022-08-01T20:32:25.937Z,56.45
2022-08-01T20:34:55.265Z,56.59
2022-08-01T20:38:06.283Z,56.67
2022-08-01T20:40:14.519Z,56.82
2022-08-01T20:42:44.516Z,56.92
2022-08-01T20:45:18.372Z,57.01
2022-08-01T20:47:53.981Z,57.18
2022-08-01T20:50:52.946Z,57.19
2022-08-01T20:53:23.124Z,57.18
2022-08-01T20:55:59.857Z,57.23
2022-08-01T20:58:36.989Z,57.28
2022-08-01T21:01:09.587Z,57.53
2022-08-01T21:03:46.483Z,57.41
2022-08-01T21:06:22.033Z,57.55
2022-08-01T21:08:53.464Z,57.62
2022-08-01T21:11:25.188Z,57.85
2022-08-01T21:13:56.021Z,57.80
2022-08-01T21:16:32.078Z,58.01
2022-08-01T21:19:23.860Z,58.01
2022-08-01T21:22:10.383Z,58.05
2022-08-01T21:24:46.526Z,58.05
2022-08-01T21:27:33.381Z,58.07
2022-08-01T21:30:05.063Z,58.31
2022-08-01T21:32:35.304Z,58.53
2022-08-01T21:35:15.968Z,58.53
2022-08-01T21:37:52.323Z,58.56
2022-08-01T21:40:24.555Z,58.77
2022-08-01T21:42:55.064Z,58.81
2022-08-01T21:45:26.685Z,58.96
2022-08-01T21:47:56.606Z,58.98
2022-08-01T21:50:26.741Z,59.05
2022-08-01T21:53:11.573Z,59.13
2022-08-01T21:55:59.725Z,59.20
2022-08-01T21:58:35.013Z,59.14
2022-08-01T22:01:51.393Z,59.21
2022-08-01T22:04:34.334Z,59.35
2022-08-01T22:07:05.948Z,59.59
2022-08-01T22:09:37.288Z,59.62
2022-08-01T22:12:08.031Z,59.53
2022-08-01T22:14:42.822Z,59.50
2022-08-01T22:17:17.369Z,59.76
2022-08-01T22:19:49.610Z,59.77
2022-08-01T22:22:32.329Z,60.01
2022-08-01T22:25:12.913Z,60.18
2022-08-01T22:28:07.818Z,60.15
2022-08-01T22:30:32.078Z,59.86
2022-08-01T22:33:07.304Z,60.17
2022-08-01T22:35:46.848Z,60.21
2022-08-01T22:38:17.948Z,60.25
2022-08-01T22:40:50.405Z,60.31
2022-08-01T22:43:38.682Z,60.23
2022-08-01T22:46:22.203Z,60.28
2022-08-01T22:48:56.696Z,60.13
2022-08-01T22:51:44.134Z,60.27
2022-08-01T22:54:29.980Z,60.44
2022-08-01T22:57:07.306Z,60.57
2022-08-01T22:59:49.089Z,60.49
2022-08-01T23:02:19.314Z,60.63
2022-08-01T23:04:50.101Z,60.77
2022-08-01T23:07:23.620Z,60.69
2022-08-01T23:09:55.256Z,60.94
2022-08-01T23:12:30.687Z,61.12
2022-08-01T23:15:00.861Z,61.05
2022-08-01T23:17:31.431Z,61.19
2022-08-01T23:20:02.270Z,61.25
2022-08-01T23:22:34.613Z,61.43
2022-08-01T23:25:06.565Z,61.48
2022-08-01T23:27:57.857Z,61.63
2022-08-01T23:30:30.035Z,61.56
2022-08-01T23:32:59.306Z,61.73
2022-08-01T23:35:36.898Z,61.85
2022-08-01T23:38:09.616Z,62.15
2022-08-01T23:40:39.473Z,62.05
2022-08-01T23:43:08.310Z,62.32
2022-08-01T23:46:02.252Z,62.19
2022-08-01T23:48:34.366Z,62.17
2022-08-01T23:51:03.574Z,62.19
2022-08-01T23:53:33.392Z,62.29
2022-08-01T23:56:04.531Z,62.37
2022-08-01T23:58:34.306Z,62.27
